Time;durP1;ratioP1;P1;durP2;ratioP2;P2;SDS_P1;SDS_P2;PMS_P1;PMS_P2;Temp;Humidity;BMP_temperature;BMP_pressure;BME280_temperature;BME280_humidity;BME280_pressure;Samples;Min_cycle;Max_cycle;Signal;HPM_P1;HPM_P2
2023/09/23 00:01:04;;;;;;;7.13;1.57;;;13.20;99.90;;;;;;7292729;19;20188;-87
2023/09/23 00:03:33;;;;;;;9.53;2.07;;;13.30;99.90;;;;;;7293025;19;20658;-87
2023/09/23 00:06:01;;;;;;;6.37;1.80;;;13.20;99.90;;;;;;7294256;19;20194;-88
2023/09/23 00:08:29;;;;;;;8.63;2.00;;;13.30;99.90;;;;;;7294049;19;20703;-92
2023/09/23 00:11:02;;;;;;;7.93;1.70;;;13.20;99.90;;;;;;7291938;19;20188;-86
2023/09/23 00:13:32;;;;;;;11.17;1.77;;;13.00;99.90;;;;;;7297334;19;20208;-92
2023/09/23 00:15:58;;;;;;;6.57;1.57;;;13.10;99.90;;;;;;7297512;19;20264;-87
2023/09/23 00:18:27;;;;;;;10.43;1.93;;;13.10;99.90;;;;;;7298417;19;20197;-87
2023/09/23 00:21:05;;;;;;;6.10;1.63;;;13.10;99.90;;;;;;7295545;19;20181;-87
2023/09/23 00:23:34;;;;;;;10.13;1.83;;;13.00;99.90;;;;;;7294831;19;20200;-87
2023/09/23 00:26:17;;;;;;;10.70;1.70;;;13.00;99.90;;;;;;7297991;19;20193;-87
2023/09/23 00:28:59;;;;;;;9.17;1.60;;;13.10;99.90;;;;;;7284906;19;20188;-93
2023/09/23 00:31:25;;;;;;;11.27;2.00;;;13.10;99.90;;;;;;7292344;19;20187;-87
2023/09/23 00:33:52;;;;;;;6.93;1.70;;;13.20;99.90;;;;;;7292984;19;20545;-92
2023/09/23 00:36:19;;;;;;;6.73;1.83;;;13.10;99.90;;;;;;7292634;19;20207;-92
2023/09/23 00:38:45;;;;;;;10.00;2.40;;;13.10;99.90;;;;;;7315535;19;20237;-92
2023/09/23 00:41:15;;;;;;;9.27;1.70;;;13.00;99.90;;;;;;7290645;19;20208;-92
2023/09/23 00:43:42;;;;;;;10.03;1.90;;;13.00;99.90;;;;;;7290972;19;20191;-92
2023/09/23 00:46:10;;;;;;;7.40;1.77;;;13.00;99.90;;;;;;7292350;19;20198;-93
2023/09/23 00:48:43;;;;;;;8.60;1.87;;;12.90;99.90;;;;;;7291593;19;21445;-92
2023/09/23 00:51:10;;;;;;;6.03;1.80;;;13.00;99.90;;;;;;7293530;19;20215;-87
2023/09/23 00:53:39;;;;;;;7.83;1.93;;;13.00;99.90;;;;;;7294263;19;20185;-92
2023/09/23 00:56:09;;;;;;;9.63;2.00;;;13.00;99.90;;;;;;7291682;19;22015;-93
2023/09/23 00:58:42;;;;;;;8.17;2.10;;;12.90;99.90;;;;;;7290422;19;20201;-92
2023/09/23 01:01:11;;;;;;;10.10;2.10;;;12.90;99.90;;;;;;7292712;19;20207;-93
2023/09/23 01:03:39;;;;;;;10.03;2.07;;;12.90;99.90;;;;;;7293284;19;20200;-93
2023/09/23 01:06:15;;;;;;;6.40;1.90;;;12.90;99.90;;;;;;7291136;19;20219;-92
2023/09/23 01:08:46;;;;;;;10.23;2.10;;;12.90;99.90;;;;;;7290053;19;20198;-93
2023/09/23 01:11:17;;;;;;;10.73;2.20;;;12.90;99.90;;;;;;7290467;19;20194;-92
2023/09/23 01:13:50;;;;;;;8.53;1.90;;;12.90;99.90;;;;;;7285377;19;20290;-93
2023/09/23 01:16:21;;;;;;;11.00;1.83;;;12.90;99.90;;;;;;7305794;19;20276;-93
2023/09/23 01:18:56;;;;;;;7.43;1.77;;;12.90;99.90;;;;;;7299505;19;20199;-87
2023/09/23 01:21:22;;;;;;;8.73;2.20;;;12.90;99.90;;;;;;7287502;19;20258;-93
2023/09/23 01:23:51;;;;;;;7.50;2.03;;;12.80;99.90;;;;;;7287516;19;20207;-92
2023/09/23 01:26:20;;;;;;;10.03;2.37;;;12.80;99.90;;;;;;7303337;19;20191;-87
2023/09/23 01:28:49;;;;;;;9.47;1.87;;;12.80;99.90;;;;;;7309614;19;20198;-87
2023/09/23 01:31:17;;;;;;;8.20;1.73;;;12.70;99.90;;;;;;7314712;19;20209;-92
2023/09/23 01:33:43;;;;;;;9.50;2.10;;;12.80;99.90;;;;;;7290853;19;20189;-92
2023/09/23 01:36:16;;;;;;;9.73;2.10;;;12.80;99.90;;;;;;7290153;19;20275;-92
2023/09/23 01:38:48;;;;;;;6.70;1.80;;;12.80;99.90;;;;;;7294601;19;20194;-93
2023/09/23 01:41:17;;;;;;;12.87;2.63;;;12.80;99.90;;;;;;7300040;19;20211;-91
2023/09/23 01:43:47;;;;;;;13.50;2.50;;;12.80;99.90;;;;;;7302360;19;20219;-92
2023/09/23 01:46:16;;;;;;;7.87;2.50;;;12.80;99.90;;;;;;7302282;19;20200;-87
2023/09/23 01:48:43;;;;;;;9.87;2.30;;;12.80;99.90;;;;;;7296177;19;20195;-92
2023/09/23 01:51:16;;;;;;;9.80;2.40;;;12.80;99.90;;;;;;7295293;19;20641;-87
2023/09/23 01:53:46;;;;;;;9.07;2.33;;;12.80;99.90;;;;;;7291296;19;20191;-88
2023/09/23 01:56:12;;;;;;;7.97;2.50;;;12.80;99.90;;;;;;7291384;19;20275;-92
2023/09/23 01:58:48;;;;;;;11.87;2.50;;;12.70;99.90;;;;;;7289410;19;20228;-92
2023/09/23 02:01:21;;;;;;;8.40;2.40;;;12.70;99.90;;;;;;7291633;19;20191;-87
2023/09/23 02:03:49;;;;;;;8.40;2.20;;;12.70;99.90;;;;;;7279606;19;20193;-86
2023/09/23 02:06:17;;;;;;;7.03;2.40;;;12.70;99.90;;;;;;7309642;19;20189;-86
2023/09/23 02:08:49;;;;;;;11.17;2.43;;;12.70;99.90;;;;;;7290717;19;20202;-90
2023/09/23 02:11:16;;;;;;;11.23;2.40;;;12.60;99.90;;;;;;7291484;19;20179;-87
2023/09/23 02:13:47;;;;;;;11.97;2.33;;;12.70;99.90;;;;;;7289134;19;20192;-92
2023/09/23 02:16:12;;;;;;;10.73;2.10;;;12.70;99.90;;;;;;7287930;19;20196;-87
2023/09/23 02:18:39;;;;;;;11.67;2.33;;;12.70;99.90;;;;;;7290451;19;20194;-92
2023/09/23 02:21:07;;;;;;;13.73;2.53;;;12.60;99.90;;;;;;7291010;19;20198;-92
2023/09/23 02:23:33;;;;;;;10.83;2.50;;;12.60;99.90;;;;;;7288434;19;20178;-87
2023/09/23 02:26:01;;;;;;;5.73;2.40;;;12.50;99.90;;;;;;7287749;19;20193;-92
2023/09/23 02:28:40;;;;;;;8.13;2.60;;;12.50;99.90;;;;;;7289206;19;20199;-87
2023/09/23 02:31:12;;;;;;;10.23;2.50;;;12.50;99.90;;;;;;7290262;19;20198;-92
2023/09/23 02:33:39;;;;;;;10.77;3.03;;;12.50;99.90;;;;;;7289746;19;20198;-92
2023/09/23 02:36:14;;;;;;;12.33;2.30;;;12.50;99.90;;;;;;7295439;19;20206;-87
2023/09/23 02:38:48;;;;;;;15.40;2.57;;;12.40;99.90;;;;;;7297143;19;20200;-87
2023/09/23 02:41:17;;;;;;;10.67;2.53;;;12.40;99.90;;;;;;7295793;19;20199;-87
2023/09/23 02:43:48;;;;;;;9.87;2.47;;;12.50;99.90;;;;;;7309464;19;20222;-92
2023/09/23 02:46:20;;;;;;;9.70;2.20;;;12.50;99.90;;;;;;7297742;19;20191;-92
2023/09/23 02:48:48;;;;;;;7.70;2.43;;;12.40;99.90;;;;;;7298797;19;20196;-92
2023/09/23 02:51:18;;;;;;;9.90;2.20;;;12.50;99.90;;;;;;7301972;19;20202;-92
2023/09/23 02:53:44;;;;;;;8.03;2.20;;;12.50;99.90;;;;;;7314017;19;20572;-87
2023/09/23 02:56:13;;;;;;;8.67;2.17;;;12.50;99.90;;;;;;7317082;19;20188;-87
2023/09/23 02:58:52;;;;;;;10.73;2.33;;;12.60;99.90;;;;;;7313280;19;20770;-92
2023/09/23 03:01:30;;;;;;;8.00;2.20;;;12.50;99.90;;;;;;7290116;19;20203;-91
2023/09/23 03:03:56;;;;;;;9.90;2.60;;;12.40;99.90;;;;;;7309976;19;20187;-92
2023/09/23 03:06:22;;;;;;;11.40;2.30;;;12.40;99.90;;;;;;7318936;19;20204;-93
2023/09/23 03:08:53;;;;;;;11.83;2.30;;;12.40;99.90;;;;;;7318126;19;20203;-93
2023/09/23 03:11:26;;;;;;;10.77;2.63;;;12.40;99.90;;;;;;7306269;19;20650;-87
2023/09/23 03:13:52;;;;;;;8.83;2.33;;;12.50;99.90;;;;;;7304386;19;20204;-93
2023/09/23 03:16:28;;;;;;;7.83;2.17;;;12.40;99.90;;;;;;7304169;19;20189;-86
2023/09/23 03:19:10;;;;;;;8.13;2.20;;;12.40;99.90;;;;;;7294940;19;20198;-87
2023/09/23 03:21:45;;;;;;;8.80;2.37;;;12.30;99.90;;;;;;7291455;19;20199;-87
2023/09/23 03:24:15;;;;;;;11.13;2.53;;;12.40;99.90;;;;;;7294338;19;20200;-93
2023/09/23 03:26:46;;;;;;;9.17;2.23;;;12.40;99.90;;;;;;7295446;19;20190;-87
2023/09/23 03:29:18;;;;;;;8.50;2.27;;;12.40;99.90;;;;;;7294916;19;20312;-87
2023/09/23 03:31:44;;;;;;;10.33;2.20;;;12.40;99.90;;;;;;7296809;19;20218;-86
2023/09/23 03:34:13;;;;;;;9.57;2.33;;;12.40;99.90;;;;;;7293706;19;20201;-87
2023/09/23 03:36:41;;;;;;;8.33;2.13;;;12.30;99.90;;;;;;7290869;19;20227;-93
2023/09/23 03:39:14;;;;;;;10.03;2.60;;;12.40;99.90;;;;;;7292654;19;20655;-87
2023/09/23 03:41:44;;;;;;;12.23;2.80;;;12.40;99.90;;;;;;7290155;19;20230;-87
2023/09/23 03:44:14;;;;;;;5.07;1.97;;;12.40;99.90;;;;;;7293808;19;20200;-87
2023/09/23 03:46:52;;;;;;;9.23;2.10;;;12.40;99.90;;;;;;7288495;19;20199;-92
2023/09/23 03:49:18;;;;;;;9.43;2.20;;;12.40;99.90;;;;;;7284913;19;20196;-87
2023/09/23 03:51:47;;;;;;;9.73;2.50;;;12.40;99.90;;;;;;7311660;19;20195;-87
2023/09/23 03:54:17;;;;;;;12.73;7.43;;;12.40;99.90;;;;;;7297136;19;20247;-93
2023/09/23 03:56:43;;;;;;;10.13;5.73;;;12.30;99.90;;;;;;7293204;19;20207;-93
2023/09/23 03:59:09;;;;;;;11.27;3.20;;;12.20;99.90;;;;;;7293548;19;20258;-93
2023/09/23 04:01:38;;;;;;;12.03;3.13;;;12.30;99.90;;;;;;7292160;19;20545;-93
2023/09/23 04:04:10;;;;;;;9.33;2.50;;;12.30;99.90;;;;;;7292679;19;20239;-93
2023/09/23 04:06:45;;;;;;;10.37;3.13;;;12.30;99.90;;;;;;7298303;19;20185;-92
2023/09/23 04:09:13;;;;;;;11.33;2.40;;;12.30;99.90;;;;;;7296641;19;20185;-88
2023/09/23 04:11:45;;;;;;;9.80;2.30;;;12.30;99.90;;;;;;7295209;19;20197;-87
2023/09/23 04:14:13;;;;;;;7.40;1.83;;;12.40;99.90;;;;;;7292060;19;20198;-87
2023/09/23 04:16:39;;;;;;;9.70;2.40;;;12.40;99.90;;;;;;7291117;19;20186;-87
2023/09/23 04:19:07;;;;;;;10.63;2.40;;;12.40;99.90;;;;;;7291976;19;20578;-93
2023/09/23 04:21:33;;;;;;;12.17;2.40;;;12.40;99.90;;;;;;7292233;19;20196;-93
2023/09/23 04:24:01;;;;;;;9.80;2.33;;;12.40;99.90;;;;;;7292037;19;20211;-93
2023/09/23 04:26:29;;;;;;;9.87;2.13;;;12.40;99.90;;;;;;7291610;19;20635;-93
2023/09/23 04:29:01;;;;;;;11.13;2.50;;;12.30;99.90;;;;;;7288287;19;20199;-93
2023/09/23 04:31:28;;;;;;;11.03;2.33;;;12.40;99.90;;;;;;7290594;19;20536;-87
2023/09/23 04:33:55;;;;;;;13.60;2.87;;;12.40;99.90;;;;;;7292727;19;20681;-94
2023/09/23 04:36:21;;;;;;;12.23;2.57;;;12.30;99.90;;;;;;7294320;19;20254;-87
2023/09/23 04:38:55;;;;;;;8.70;2.30;;;12.30;99.90;;;;;;7292142;19;20201;-94
2023/09/23 04:41:29;;;;;;;9.07;2.30;;;12.30;99.90;;;;;;7289519;19;20721;-92
2023/09/23 04:44:10;;;;;;;7.17;2.50;;;12.30;99.90;;;;;;7292157;19;20192;-88
2023/09/23 04:46:39;;;;;;;11.93;2.90;;;12.30;99.90;;;;;;7294085;19;20283;-92
2023/09/23 04:49:04;;;;;;;12.47;2.33;;;12.30;99.90;;;;;;7290802;19;20198;-87
2023/09/23 04:51:33;;;;;;;9.97;2.17;;;12.20;99.90;;;;;;7290138;19;20216;-93
2023/09/23 04:54:08;;;;;;;11.63;2.20;;;12.20;99.90;;;;;;7289958;19;20212;-87
2023/09/23 04:56:35;;;;;;;12.10;2.47;;;12.10;99.90;;;;;;7293889;19;20203;-92
2023/09/23 04:59:14;;;;;;;12.00;2.63;;;12.10;99.90;;;;;;7296641;19;20205;-93
2023/09/23 05:01:46;;;;;;;10.57;2.33;;;12.10;99.90;;;;;;7296943;19;20306;-92
2023/09/23 05:04:15;;;;;;;10.23;3.00;;;12.10;99.90;;;;;;7298031;19;20194;-93
2023/09/23 05:06:41;;;;;;;11.97;2.60;;;12.10;99.90;;;;;;7293758;19;20202;-95
2023/09/23 05:09:08;;;;;;;8.77;2.60;;;12.10;99.90;;;;;;7295515;19;20192;-93
2023/09/23 05:11:38;;;;;;;13.63;3.10;;;12.20;99.90;;;;;;7295058;19;20191;-93
2023/09/23 05:14:16;;;;;;;10.47;2.47;;;12.20;99.90;;;;;;7294210;19;20192;-88
2023/09/23 05:16:42;;;;;;;9.47;2.80;;;12.10;99.90;;;;;;7287241;19;20250;-88
2023/09/23 05:19:09;;;;;;;9.90;2.87;;;12.20;99.90;;;;;;7288095;19;20662;-87
2023/09/23 05:21:39;;;;;;;12.53;3.00;;;12.20;99.90;;;;;;7287896;19;20276;-87
2023/09/23 05:24:06;;;;;;;13.87;2.77;;;12.20;99.90;;;;;;7287637;19;20191;-86
2023/09/23 05:26:33;;;;;;;11.20;2.80;;;12.10;99.90;;;;;;7286734;19;20202;-86
2023/09/23 05:29:02;;;;;;;11.43;2.73;;;12.20;99.90;;;;;;7286839;19;20656;-87
2023/09/23 05:31:31;;;;;;;10.57;2.63;;;12.20;99.90;;;;;;7289096;19;20199;-88
2023/09/23 05:33:59;;;;;;;13.23;2.60;;;12.20;99.90;;;;;;7289975;19;20184;-88
2023/09/23 05:36:25;;;;;;;7.43;2.70;;;12.10;99.90;;;;;;7287046;19;20672;-87
2023/09/23 05:39:00;;;;;;;12.60;3.23;;;12.20;99.90;;;;;;7290172;19;20206;-88
2023/09/23 05:41:29;;;;;;;8.87;2.80;;;12.20;99.90;;;;;;7295637;19;20264;-94
2023/09/23 05:43:55;;;;;;;10.57;2.97;;;12.20;99.90;;;;;;7293487;19;20216;-92
2023/09/23 05:46:21;;;;;;;8.23;3.00;;;12.30;99.90;;;;;;7295160;19;20857;-92
2023/09/23 05:48:52;;;;;;;11.30;2.93;;;12.30;99.90;;;;;;7311326;19;20196;-91
2023/09/23 05:51:22;;;;;;;13.70;3.50;;;12.30;99.90;;;;;;7267056;19;20192;-87
2023/09/23 05:53:48;;;;;;;10.00;3.07;;;12.40;99.90;;;;;;7303153;19;20206;-87
2023/09/23 05:56:14;;;;;;;12.63;3.03;;;12.40;99.90;;;;;;7306744;19;20178;-88
2023/09/23 05:58:51;;;;;;;11.73;2.90;;;12.40;99.90;;;;;;7285222;19;20251;-88
2023/09/23 06:01:27;;;;;;;12.93;2.80;;;12.50;99.90;;;;;;7183006;19;2004647;-87
2023/09/23 06:03:53;;;;;;;9.30;3.20;;;12.50;99.90;;;;;;7286384;19;20198;-88
2023/09/23 06:06:26;;;;;;;10.33;3.23;;;12.50;99.90;;;;;;7285648;19;20190;-88
2023/09/23 06:08:51;;;;;;;9.90;3.10;;;12.60;99.90;;;;;;7285159;19;20190;-87
2023/09/23 06:11:20;;;;;;;21.53;3.50;;;12.70;99.90;;;;;;7306681;19;20302;-93
2023/09/23 06:13:52;;;;;;;12.97;3.00;;;12.70;99.90;;;;;;7298047;19;20213;-87
2023/09/23 06:16:31;;;;;;;8.97;3.40;;;12.80;99.90;;;;;;7301659;19;20188;-87
2023/09/23 06:19:00;;;;;;;11.70;3.33;;;12.80;99.90;;;;;;7297466;19;20205;-87
2023/09/23 06:21:29;;;;;;;12.40;3.67;;;12.90;99.90;;;;;;7294539;19;20210;-87
2023/09/23 06:24:10;;;;;;;12.63;3.20;;;13.00;99.90;;;;;;7290758;19;20258;-88
2023/09/23 06:26:37;;;;;;;12.73;3.00;;;13.10;99.90;;;;;;7290946;19;20224;-93
2023/09/23 06:29:16;;;;;;;10.70;3.30;;;13.40;99.90;;;;;;7290038;19;20187;-92
2023/09/23 06:31:45;;;;;;;9.80;2.97;;;13.80;99.90;;;;;;7291407;19;20189;-93
2023/09/23 06:34:11;;;;;;;9.60;2.73;;;14.90;99.90;;;;;;7289579;19;20724;-93
2023/09/23 06:36:39;;;;;;;9.17;2.30;;;16.20;99.90;;;;;;7291403;19;20199;-93
2023/09/23 06:39:05;;;;;;;6.10;1.80;;;17.10;99.90;;;;;;7291170;19;20607;-93
2023/09/23 06:42:06;;;;;;;11.87;2.03;;;17.90;99.90;;;;;;7291876;19;20222;-94
2023/09/23 06:44:35;;;;;;;6.20;1.70;;;18.70;99.90;;;;;;7185186;19;2004413;-90
2023/09/23 06:47:01;;;;;;;7.20;1.97;;;19.90;99.90;;;;;;7290184;19;20183;-93
2023/09/23 06:49:27;;;;;;;6.43;1.70;;;20.60;99.90;;;;;;7289766;19;20190;-92
2023/09/23 06:51:52;;;;;;;7.13;1.90;;;21.40;99.90;;;;;;7290705;19;21098;-94
2023/09/23 06:54:22;;;;;;;9.63;2.10;;;21.60;99.90;;;;;;7302328;19;20239;-90
2023/09/23 06:56:47;;;;;;;9.83;1.80;;;22.20;99.90;;;;;;7310294;19;20214;-92
2023/09/23 06:59:17;;;;;;;8.03;1.90;;;22.30;99.90;;;;;;7305140;19;20193;-94
2023/09/23 07:01:42;;;;;;;7.47;2.07;;;22.30;99.90;;;;;;7296027;19;20327;-90
2023/09/23 07:04:14;;;;;;;7.87;1.87;;;22.10;99.90;;;;;;7299027;19;20193;-90
2023/09/23 07:06:41;;;;;;;8.50;2.13;;;22.20;99.90;;;;;;7304182;19;20196;-92
2023/09/23 07:09:07;;;;;;;7.23;1.83;;;22.20;99.90;;;;;;7308341;19;20189;-90
2023/09/23 07:11:33;;;;;;;8.37;1.80;;;22.20;99.90;;;;;;7309501;19;20244;-90
2023/09/23 07:14:08;;;;;;;7.60;1.70;;;22.10;99.90;;;;;;7311823;19;20196;-90
2023/09/23 07:16:34;;;;;;;5.97;1.43;;;21.90;99.90;;;;;;7305014;19;20189;-90
2023/09/23 07:19:06;;;;;;;6.40;1.80;;;21.80;99.90;;;;;;7305160;19;20202;-89
2023/09/23 07:21:34;;;;;;;8.37;1.90;;;21.50;99.90;;;;;;7315142;19;20193;-87
2023/09/23 07:24:10;;;;;;;6.40;1.70;;;21.80;99.90;;;;;;7321095;19;20201;-89
2023/09/23 07:26:36;;;;;;;6.80;1.80;;;21.80;99.90;;;;;;7319963;19;20225;-89
2023/09/23 07:29:08;;;;;;;6.87;1.83;;;22.30;99.90;;;;;;7321620;19;20189;-89
2023/09/23 07:31:49;;;;;;;6.10;1.80;;;22.40;99.90;;;;;;7302607;19;20200;-89
2023/09/23 07:34:18;;;;;;;6.47;1.73;;;22.70;99.90;;;;;;7291976;19;20214;-89
2023/09/23 07:36:44;;;;;;;8.07;1.70;;;22.70;99.90;;;;;;7302709;19;21117;-89
2023/09/23 07:39:16;;;;;;;5.97;1.57;;;22.70;99.90;;;;;;7293614;19;20229;-89
2023/09/23 07:41:43;;;;;;;7.93;1.80;;;22.90;99.90;;;;;;7291301;19;20189;-89
2023/09/23 07:44:11;;;;;;;8.33;1.83;;;23.40;99.90;;;;;;7291276;19;20708;-89
2023/09/23 07:46:38;;;;;;;7.50;1.73;;;24.10;99.90;;;;;;7292458;19;20192;-89
2023/09/23 07:49:04;;;;;;;9.00;1.90;;;23.80;99.90;;;;;;7294607;19;20181;-89
2023/09/23 07:51:30;;;;;;;6.77;1.70;;;24.00;99.90;;;;;;7296269;19;20664;-89
2023/09/23 07:54:04;;;;;;;6.67;1.77;;;24.00;99.90;;;;;;7304132;19;20189;-91
2023/09/23 07:56:40;;;;;;;5.57;1.60;;;23.60;99.90;;;;;;7309237;19;20184;-88
2023/09/23 07:59:09;;;;;;;5.03;1.50;;;23.40;99.90;;;;;;7302285;19;20189;-89
2023/09/23 08:01:38;;;;;;;6.43;1.93;;;23.40;99.90;;;;;;7295894;19;20201;-91
2023/09/23 08:04:04;;;;;;;7.40;2.00;;;23.40;99.90;;;;;;7296991;19;20188;-94
2023/09/23 08:06:36;;;;;;;7.67;1.77;;;23.90;99.90;;;;;;7297147;19;20203;-88
2023/09/23 08:09:03;;;;;;;7.10;1.70;;;24.10;99.90;;;;;;7290204;19;20184;-87
2023/09/23 08:11:29;;;;;;;8.87;2.03;;;23.90;99.90;;;;;;7292743;19;20181;-93
2023/09/23 08:13:56;;;;;;;8.10;1.80;;;23.90;99.90;;;;;;7312262;19;20252;-93
2023/09/23 08:16:22;;;;;;;7.73;1.60;;;23.90;99.90;;;;;;7318042;19;20205;-94
2023/09/23 08:18:53;;;;;;;5.97;1.70;;;23.80;99.90;;;;;;7341673;19;20200;-90
2023/09/23 08:21:19;;;;;;;6.67;1.70;;;24.90;99.90;;;;;;7291336;19;20185;-88
2023/09/23 08:23:49;;;;;;;11.07;1.70;;;25.50;99.90;;;;;;7330351;19;20241;-88
2023/09/23 08:26:25;;;;;;;8.73;2.07;;;24.80;99.90;;;;;;7307148;19;20272;-87
2023/09/23 08:29:05;;;;;;;6.27;1.77;;;23.90;99.90;;;;;;7272646;19;20652;-94
2023/09/23 08:31:34;;;;;;;8.90;1.93;;;23.30;99.90;;;;;;7291427;19;20226;-89
2023/09/23 08:34:14;;;;;;;8.87;1.70;;;23.10;99.90;;;;;;7288412;19;20200;-89
2023/09/23 08:36:52;;;;;;;7.77;1.73;;;23.60;99.90;;;;;;7289191;19;20197;-90
2023/09/23 08:39:19;;;;;;;8.90;1.73;;;24.70;99.90;;;;;;7285494;19;20185;-90
2023/09/23 08:41:54;;;;;;;7.57;1.60;;;24.80;99.90;;;;;;7313927;19;20210;-92
2023/09/23 08:44:27;;;;;;;7.17;1.67;;;25.50;99.90;;;;;;7277355;19;20189;-91
2023/09/23 08:46:54;;;;;;;7.83;1.63;;;24.60;99.90;;;;;;7292291;19;20213;-91
2023/09/23 08:49:31;;;;;;;7.53;1.70;;;23.90;99.90;;;;;;7294099;19;20227;-91
2023/09/23 08:52:15;;;;;;;5.47;1.50;;;23.10;99.90;;;;;;7292702;19;20196;-91
2023/09/23 08:54:54;;;;;;;7.63;1.73;;;21.70;99.90;;;;;;7293919;19;20195;-88
2023/09/23 08:57:20;;;;;;;9.90;1.80;;;21.40;99.90;;;;;;7273590;19;20195;-90
2023/09/23 08:59:49;;;;;;;10.47;1.90;;;21.40;99.90;;;;;;7318237;19;20192;-91
2023/09/23 09:02:29;;;;;;;9.60;1.80;;;21.30;99.90;;;;;;7291912;19;20703;-91
2023/09/23 09:05:01;;;;;;;11.30;1.83;;;21.20;99.90;;;;;;7187294;19;2004564;-91
2023/09/23 09:07:45;;;;;;;8.20;1.67;;;20.90;99.90;;;;;;7292984;19;20184;-88
2023/09/23 09:10:11;;;;;;;9.57;1.63;;;20.80;99.90;;;;;;7292953;19;20190;-91
2023/09/23 09:12:36;;;;;;;8.70;1.83;;;20.60;99.90;;;;;;7288338;19;20198;-88
2023/09/23 09:15:06;;;;;;;6.60;1.63;;;20.20;99.90;;;;;;7290072;19;20186;-91
2023/09/23 09:17:44;;;;;;;8.03;2.00;;;19.90;99.90;;;;;;7290753;19;20189;-92
2023/09/23 09:20:18;;;;;;;9.20;1.87;;;19.60;99.90;;;;;;7293975;19;20199;-91
2023/09/23 09:22:56;;;;;;;7.87;2.37;;;19.80;99.90;;;;;;7294095;19;20575;-90
2023/09/23 09:25:47;;;;;;;8.97;1.80;;;19.50;99.90;;;;;;7268893;19;20185;-88
2023/09/23 09:28:22;;;;;;;10.13;2.00;;;19.60;99.90;;;;;;7290457;19;20189;-91
2023/09/23 09:30:58;;;;;;;7.43;1.50;;;19.70;99.90;;;;;;7287346;19;20195;-88
2023/09/23 09:33:36;;;;;;;7.63;1.47;;;20.10;99.90;;;;;;7292497;19;20185;-87
2023/09/23 09:36:13;;;;;;;6.47;1.60;;;19.70;99.90;;;;;;7295639;19;20188;-91
2023/09/23 09:38:43;;;;;;;10.40;1.47;;;19.90;99.90;;;;;;7293354;19;20184;-87
2023/09/23 09:41:25;;;;;;;8.30;1.57;;;20.20;99.90;;;;;;7294748;19;20188;-90
2023/09/23 09:43:56;;;;;;;9.00;1.80;;;20.50;99.90;;;;;;7272554;19;20211;-87
2023/09/23 09:46:27;;;;;;;9.80;1.80;;;20.50;99.90;;;;;;7295298;19;20194;-91
2023/09/23 09:49:07;;;;;;;6.37;1.43;;;21.20;99.90;;;;;;7297759;19;20283;-92
2023/09/23 09:51:35;;;;;;;8.57;1.37;;;21.60;99.90;;;;;;7291844;19;20187;-87
2023/09/23 09:54:04;;;;;;;6.33;1.37;;;22.50;99.90;;;;;;7291237;19;20219;-87
2023/09/23 09:56:34;;;;;;;7.97;1.63;;;24.30;99.90;;;;;;7293157;19;20204;-88
2023/09/23 09:59:00;;;;;;;8.53;1.63;;;25.40;99.90;;;;;;7290387;19;20200;-91
2023/09/23 10:01:28;;;;;;;7.00;1.50;;;24.30;99.90;;;;;;7291350;19;20196;-91
2023/09/23 10:03:54;;;;;;;8.97;1.93;;;23.70;99.90;;;;;;7289199;19;20189;-91
2023/09/23 10:06:39;;;;;;;9.40;2.00;;;23.70;99.90;;;;;;7297905;19;20229;-91
2023/09/23 10:09:17;;;;;;;9.80;1.60;;;23.80;99.90;;;;;;7294342;19;20192;-88
2023/09/23 10:11:53;;;;;;;7.57;1.60;;;25.10;99.90;;;;;;7296439;19;20264;-87
2023/09/23 10:14:23;;;;;;;6.43;1.30;;;25.80;99.90;;;;;;7284082;19;20244;-90
2023/09/23 10:17:05;;;;;;;7.13;1.70;;;26.20;99.90;;;;;;7310873;19;20181;-88
2023/09/23 10:19:38;;;;;;;6.55;1.27;;;27.10;99.90;;;;;;7290125;19;20197;-91
2023/09/23 10:22:21;;;;;;;4.50;1.20;;;26.60;99.90;;;;;;7286613;19;20213;-90
2023/09/23 10:25:11;;;;;;;6.67;1.20;;;26.20;99.90;;;;;;7293098;19;20188;-91
2023/09/23 10:27:39;;;;;;;6.87;1.37;;;24.60;99.90;;;;;;7187160;19;2004448;-91
2023/09/23 10:30:22;;;;;;;8.03;1.20;;;24.10;99.90;;;;;;7284897;19;20205;-91
2023/09/23 10:32:55;;;;;;;7.57;1.40;;;23.70;99.90;;;;;;7285091;19;20189;-89
2023/09/23 10:35:40;;;;;;;7.87;1.40;;;23.20;99.90;;;;;;7289305;19;20188;-90
2023/09/23 10:38:19;;;;;;;5.90;1.20;;;23.40;99.90;;;;;;7287556;19;20663;-88
2023/09/23 10:40:54;;;;;;;7.30;1.00;;;24.60;99.90;;;;;;7287665;19;20192;-88
2023/09/23 10:43:27;;;;;;;6.07;1.20;;;26.50;99.90;;;;;;7269393;19;20196;-89
2023/09/23 10:46:01;;;;;;;7.03;1.38;;;28.20;99.60;;;;;;7287354;19;20189;-89
2023/09/23 10:48:32;;;;;;;7.10;1.17;;;28.30;96.40;;;;;;7285126;19;20189;-89
2023/09/23 10:51:00;;;;;;;5.90;1.13;;;28.10;95.70;;;;;;7285540;19;20181;-89
2023/09/23 10:53:27;;;;;;;5.07;1.10;;;28.40;94.60;;;;;;7286481;19;20220;-89
2023/09/23 10:55:57;;;;;;;7.50;1.25;;;29.20;92.60;;;;;;7287229;19;20181;-89
2023/09/23 10:58:27;;;;;;;6.65;1.30;;;29.80;90.90;;;;;;7293612;19;20211;-90
2023/09/23 11:00:57;;;;;;;4.88;1.10;;;28.90;91.40;;;;;;7293644;19;20209;-89
2023/09/23 11:03:30;;;;;;;6.22;1.30;;;28.20;94.00;;;;;;7293620;19;20196;-90
2023/09/23 11:05:59;;;;;;;5.35;1.08;;;27.50;92.80;;;;;;7302736;19;20188;-90
2023/09/23 11:08:29;;;;;;;9.32;1.33;;;26.80;95.40;;;;;;7308448;19;20193;-89
2023/09/23 11:10:57;;;;;;;7.78;1.48;;;26.50;96.10;;;;;;7311070;19;20193;-90
2023/09/23 11:13:31;;;;;;;7.95;1.35;;;25.90;99.90;;;;;;7313239;19;20198;-91
2023/09/23 11:16:10;;;;;;;7.97;1.70;;;26.20;97.60;;;;;;7312522;19;20285;-90
2023/09/23 11:18:42;;;;;;;5.93;1.50;;;25.90;98.70;;;;;;7296567;19;20197;-89
2023/09/23 11:21:08;;;;;;;4.63;1.20;;;25.30;99.20;;;;;;7292952;19;20222;-89
2023/09/23 11:23:40;;;;;;;7.97;1.53;;;24.60;99.90;;;;;;7291008;19;20196;-88
2023/09/23 11:26:21;;;;;;;6.07;1.30;;;24.10;99.90;;;;;;7291719;19;20294;-89
2023/09/23 11:28:50;;;;;;;7.03;1.13;;;23.70;99.90;;;;;;7278368;19;20200;-89
2023/09/23 11:31:17;;;;;;;10.63;1.40;;;23.80;99.90;;;;;;7316802;19;20189;-90
2023/09/23 11:34:30;;;;;;;6.53;1.40;;;23.80;99.90;;;;;;7295318;19;20196;-90
2023/09/23 11:37:11;;;;;;;6.33;1.30;;;25.20;99.90;;;;;;7089284;19;2004407;-90
2023/09/23 11:39:42;;;;;;;7.97;1.58;;;26.60;99.40;;;;;;7295026;19;20196;-90
2023/09/23 11:42:08;;;;;;;10.63;1.55;;;26.20;98.00;;;;;;7298538;19;20205;-86
2023/09/23 11:44:35;;;;;;;5.25;0.90;;;25.50;99.60;;;;;;7297550;19;20202;-86
2023/09/23 11:47:06;;;;;;;6.35;1.23;;;26.40;99.90;;;;;;7297218;19;20289;-89
2023/09/23 11:49:32;;;;;;;6.55;1.20;;;27.60;97.50;;;;;;7294801;19;20204;-86
2023/09/23 11:51:59;;;;;;;6.40;1.13;;;27.90;94.40;;;;;;7293101;19;20264;-89
2023/09/23 11:54:30;;;;;;;6.90;1.00;;;28.40;91.40;;;;;;7295518;19;20677;-89
2023/09/23 11:56:59;;;;;;;6.22;1.33;;;27.70;92.30;;;;;;7291787;19;20291;-88
2023/09/23 11:59:25;;;;;;;5.25;1.00;;;27.10;93.40;;;;;;7295577;19;20272;-85
2023/09/23 12:01:51;;;;;;;4.15;0.73;;;27.60;94.00;;;;;;7293600;19;20213;-89
2023/09/23 12:04:17;;;;;;;4.93;1.30;;;28.20;93.60;;;;;;7317087;19;20256;-89
2023/09/23 12:06:45;;;;;;;6.63;1.20;;;28.40;91.30;;;;;;7296082;19;20665;-86
2023/09/23 12:09:11;;;;;;;9.13;1.45;;;28.20;88.70;;;;;;7293494;19;20268;-86
2023/09/23 12:11:37;;;;;;;6.78;1.17;;;29.00;90.90;;;;;;7292634;19;20193;-86
2023/09/23 12:14:03;;;;;;;4.68;1.00;;;29.50;88.00;;;;;;7293946;19;20200;-86
2023/09/23 12:16:32;;;;;;;6.70;1.17;;;29.40;89.70;;;;;;7293532;19;20223;-88
2023/09/23 12:18:58;;;;;;;6.35;1.00;;;28.60;90.10;;;;;;7295731;19;20189;-88
2023/09/23 12:21:24;;;;;;;5.70;1.08;;;28.90;88.20;;;;;;7292184;19;20188;-89
2023/09/23 12:23:55;;;;;;;4.47;1.00;;;28.50;91.70;;;;;;7305617;19;20600;-89
2023/09/23 12:26:21;;;;;;;4.97;0.90;;;27.70;85.50;;;;;;7296971;19;20231;-89
2023/09/23 12:28:48;;;;;;;5.95;1.00;;;26.90;91.80;;;;;;7315828;19;20260;-88
2023/09/23 12:31:16;;;;;;;6.25;1.20;;;26.70;92.50;;;;;;7293007;19;20189;-85
2023/09/23 12:33:42;;;;;;;5.68;0.90;;;25.40;93.10;;;;;;7295144;19;20188;-85
2023/09/23 12:36:08;;;;;;;5.87;1.00;;;24.40;95.90;;;;;;7292894;19;20193;-88
2023/09/23 12:38:34;;;;;;;6.87;1.27;;;23.80;97.90;;;;;;7296101;19;20197;-85
2023/09/23 12:41:00;;;;;;;6.87;1.27;;;23.60;99.90;;;;;;7293647;19;20185;-88
2023/09/23 12:43:26;;;;;;;4.40;0.97;;;23.40;99.90;;;;;;7293845;19;20203;-86
2023/09/23 12:45:53;;;;;;;5.13;1.10;;;23.00;99.90;;;;;;7295818;19;20192;-88
2023/09/23 12:48:19;;;;;;;6.50;1.00;;;22.70;99.90;;;;;;7306733;19;20661;-89
2023/09/23 12:50:48;;;;;;;5.13;0.90;;;22.70;99.90;;;;;;7310325;19;20189;-85
2023/09/23 12:53:14;;;;;;;6.23;1.27;;;22.70;99.90;;;;;;7298353;19;20179;-87
2023/09/23 12:55:40;;;;;;;4.63;0.90;;;22.70;99.90;;;;;;7294115;19;20219;-88
2023/09/23 12:58:06;;;;;;;6.10;0.90;;;22.40;99.90;;;;;;7295038;19;20192;-85
2023/09/23 13:00:35;;;;;;;6.00;1.00;;;22.30;99.90;;;;;;7296696;19;20192;-88